Time;durP1;ratioP1;P1;durP2;ratioP2;P2;SDS_P1;SDS_P2;PMS_P1;PMS_P2;Temp;Humidity;BMP_temperature;BMP_pressure;BME280_temperature;BME280_humidity;BME280_pressure;Samples;Min_cycle;Max_cycle;Signal;HPM_P1;HPM_P2
2023/10/14 00:02:08;;;;;;;2.10;1.95;;;20.40;72.20;;;;;;4993234;28;20246;-70
2023/10/14 00:04:34;;;;;;;2.03;1.90;;;20.40;72.20;;;;;;4991003;28;20188;-70
2023/10/14 00:07:07;;;;;;;2.80;1.95;;;20.40;72.40;;;;;;5005281;28;20199;-70
2023/10/14 00:09:43;;;;;;;3.20;2.15;;;20.40;72.20;;;;;;5011312;28;20215;-70
2023/10/14 00:12:14;;;;;;;2.53;2.10;;;20.40;72.30;;;;;;5002725;28;20186;-70
2023/10/14 00:14:43;;;;;;;2.47;2.08;;;20.40;72.20;;;;;;5002167;28;20189;-71
2023/10/14 00:17:17;;;;;;;2.05;1.85;;;20.40;72.20;;;;;;4996343;28;20176;-70
2023/10/14 00:19:49;;;;;;;2.47;2.28;;;20.50;72.30;;;;;;5001684;28;20247;-70
2023/10/14 00:22:18;;;;;;;2.75;2.30;;;20.40;72.30;;;;;;4990625;28;20181;-69
2023/10/14 00:24:47;;;;;;;2.33;2.13;;;20.40;72.20;;;;;;4974113;28;20197;-70
2023/10/14 00:27:13;;;;;;;2.65;2.45;;;20.40;72.30;;;;;;4991679;28;20282;-70
2023/10/14 00:29:39;;;;;;;2.88;2.45;;;20.40;72.40;;;;;;4975905;28;20208;-70
2023/10/14 00:32:04;;;;;;;2.45;2.25;;;20.40;72.40;;;;;;5009442;28;20191;-70
2023/10/14 00:34:30;;;;;;;3.35;2.17;;;20.40;72.40;;;;;;5016096;28;20188;-70
2023/10/14 00:36:56;;;;;;;3.58;2.20;;;20.40;72.40;;;;;;5014363;28;20224;-70
2023/10/14 00:39:24;;;;;;;2.78;2.17;;;20.40;73.20;;;;;;4999064;28;20183;-70
2023/10/14 00:41:50;;;;;;;2.25;2.05;;;20.40;72.40;;;;;;5014830;28;20238;-70
2023/10/14 00:44:18;;;;;;;2.65;2.38;;;20.40;72.50;;;;;;4983278;28;20270;-70
2023/10/14 00:46:54;;;;;;;2.65;2.45;;;20.40;72.50;;;;;;5014692;28;20190;-71
2023/10/14 00:49:22;;;;;;;2.90;2.53;;;20.40;72.50;;;;;;4991701;28;20176;-71
2023/10/14 00:51:57;;;;;;;3.05;2.20;;;20.40;72.50;;;;;;4991122;28;20183;-70
2023/10/14 00:54:39;;;;;;;2.22;2.03;;;20.40;72.50;;;;;;4999237;28;20223;-70
2023/10/14 00:57:39;;;;;;;2.22;2.05;;;20.40;72.50;;;;;;4998539;28;20192;-69
2023/10/14 00:59:57;;;;;;;2.78;2.08;;;20.40;73.30;;;;;;5013955;28;20233;-69
2023/10/14 01:02:31;;;;;;;2.47;2.08;;;20.40;72.60;;;;;;4994399;28;20184;-69
2023/10/14 01:05:06;;;;;;;2.45;2.25;;;20.40;72.60;;;;;;4998681;28;20211;-70
2023/10/14 01:07:31;;;;;;;2.30;2.10;;;20.40;72.70;;;;;;4998816;28;20241;-70
2023/10/14 01:10:00;;;;;;;2.17;2.03;;;20.40;72.60;;;;;;4975266;28;20213;-70
2023/10/14 01:12:27;;;;;;;3.28;2.58;;;20.40;72.60;;;;;;5008031;28;20270;-70
2023/10/14 01:14:57;;;;;;;2.97;2.35;;;20.40;72.70;;;;;;4981615;28;20184;-71
2023/10/14 01:17:30;;;;;;;4.10;2.72;;;20.40;72.60;;;;;;5016218;28;20180;-70
2023/10/14 01:20:25;;;;;;;2.60;2.40;;;20.40;72.60;;;;;;4997584;28;20243;-70
2023/10/14 01:22:54;;;;;;;2.40;2.10;;;20.40;72.70;;;;;;4981783;28;20188;-70
2023/10/14 01:25:24;;;;;;;2.33;2.13;;;20.40;72.60;;;;;;4998869;28;20203;-70
2023/10/14 01:27:50;;;;;;;3.15;2.53;;;20.40;72.60;;;;;;4997680;28;20567;-70
2023/10/14 01:30:21;;;;;;;2.33;2.00;;;20.40;72.70;;;;;;5014670;28;20346;-70
2023/10/14 01:35:23;;;;;;;2.50;2.30;;;20.40;72.80;;;;;;4998279;28;20203;-70
2023/10/14 01:37:58;;;;;;;2.50;2.30;;;20.40;72.80;;;;;;4994251;28;20233;-70
2023/10/14 01:40:29;;;;;;;3.70;2.63;;;20.40;72.90;;;;;;4989385;28;20220;-70
2023/10/14 01:43:08;;;;;;;3.28;2.38;;;20.40;72.90;;;;;;5006974;28;20184;-70
2023/10/14 01:45:42;;;;;;;3.00;2.70;;;20.40;72.90;;;;;;4994990;28;20267;-70
2023/10/14 01:50:46;;;;;;;2.42;2.22;;;20.40;72.90;;;;;;5010953;28;20212;-70
2023/10/14 01:53:23;;;;;;;3.20;2.30;;;20.40;72.80;;;;;;4993909;28;20181;-70
2023/10/14 01:55:55;;;;;;;2.45;2.25;;;20.40;72.90;;;;;;4974075;28;20199;-70
2023/10/14 01:58:23;;;;;;;2.42;2.22;;;20.40;73.00;;;;;;4994431;28;20176;-70
2023/10/14 02:01:41;;;;;;;3.63;2.75;;;20.40;73.00;;;;;;4992856;28;20342;-70
2023/10/14 02:03:50;;;;;;;2.35;2.15;;;20.40;73.10;;;;;;4987962;28;20197;-70
2023/10/14 02:06:25;;;;;;;2.95;2.65;;;20.40;73.30;;;;;;4988300;28;20184;-70
2023/10/14 02:08:52;;;;;;;3.47;2.70;;;20.40;73.30;;;;;;4994302;28;20183;-70
2023/10/14 02:11:20;;;;;;;2.70;2.50;;;20.40;73.30;;;;;;5010147;28;20200;-71
2023/10/14 02:13:49;;;;;;;3.53;2.20;;;20.40;73.30;;;;;;4967117;28;20200;-71
2023/10/14 02:16:18;;;;;;;2.42;2.22;;;20.40;73.30;;;;;;4977235;28;20243;-71
2023/10/14 02:18:43;;;;;;;2.42;2.22;;;20.40;73.30;;;;;;4979157;28;20200;-70
2023/10/14 02:21:11;;;;;;;3.22;2.40;;;20.40;73.30;;;;;;4976777;28;20307;-70
2023/10/14 02:23:43;;;;;;;2.83;2.53;;;20.40;73.30;;;;;;4994413;28;20193;-70
2023/10/14 02:26:33;;;;;;;3.38;2.75;;;20.40;73.30;;;;;;4975751;28;20199;-70
2023/10/14 02:28:59;;;;;;;3.75;2.72;;;20.40;73.30;;;;;;4984807;28;20189;-70
2023/10/14 02:31:29;;;;;;;2.60;2.40;;;20.40;73.30;;;;;;4970227;28;20268;-70
2023/10/14 02:34:04;;;;;;;2.83;2.40;;;20.40;73.40;;;;;;4984179;28;20199;-71
2023/10/14 02:36:35;;;;;;;2.40;2.20;;;20.40;73.30;;;;;;4976947;28;20279;-70
2023/10/14 02:39:11;;;;;;;2.58;2.30;;;20.40;73.40;;;;;;5007811;28;20271;-70
2023/10/14 02:41:40;;;;;;;2.58;2.38;;;20.40;73.50;;;;;;4993034;28;20686;-71
2023/10/14 02:46:43;;;;;;;4.53;3.00;;;20.40;73.60;;;;;;5002789;28;20242;-70
2023/10/14 02:49:18;;;;;;;3.20;2.30;;;20.40;73.70;;;;;;4995319;28;20184;-70
2023/10/14 02:51:45;;;;;;;2.40;2.20;;;20.40;73.80;;;;;;5004262;28;20187;-71
2023/10/14 02:54:15;;;;;;;3.45;2.88;;;20.40;73.80;;;;;;4976317;28;20547;-70
2023/10/14 02:59:19;;;;;;;4.38;2.60;;;20.40;73.80;;;;;;5010441;28;20552;-70
2023/10/14 03:02:09;;;;;;;2.78;2.58;;;20.40;73.90;;;;;;4992554;28;20211;-70
2023/10/14 03:04:46;;;;;;;2.65;2.45;;;20.40;73.90;;;;;;5005458;28;20180;-71
2023/10/14 03:07:21;;;;;;;2.97;2.78;;;20.40;74.00;;;;;;5005471;28;20184;-70
2023/10/14 03:09:46;;;;;;;2.97;2.65;;;20.40;74.10;;;;;;4976054;28;20216;-70
2023/10/14 03:12:18;;;;;;;2.80;2.60;;;20.40;74.00;;;;;;4972721;28;20192;-70
2023/10/14 03:14:48;;;;;;;3.25;2.85;;;20.50;74.20;;;;;;5004195;28;20200;-70
2023/10/14 03:17:23;;;;;;;3.40;3.00;;;20.40;74.20;;;;;;4985993;28;20184;-72
2023/10/14 03:19:53;;;;;;;3.10;2.80;;;20.40;74.20;;;;;;5004898;28;20216;-71
2023/10/14 03:22:25;;;;;;;3.22;2.75;;;20.40;74.20;;;;;;4992416;28;20178;-70
2023/10/14 03:24:51;;;;;;;3.22;2.60;;;20.40;74.30;;;;;;4989462;28;20195;-70
2023/10/14 03:27:19;;;;;;;3.55;3.17;;;20.40;74.30;;;;;;5011382;28;20183;-70
2023/10/14 03:29:54;;;;;;;2.65;2.45;;;20.40;74.30;;;;;;5008097;28;20239;-71
2023/10/14 03:32:32;;;;;;;3.20;2.70;;;20.40;74.40;;;;;;4980824;28;20180;-70
2023/10/14 03:35:03;;;;;;;3.05;2.70;;;20.40;74.40;;;;;;5007675;28;20195;-71
2023/10/14 03:37:35;;;;;;;2.63;2.35;;;20.40;74.50;;;;;;5004801;28;20283;-70
2023/10/14 03:42:51;;;;;;;3.25;2.70;;;20.40;74.50;;;;;;5009753;28;20195;-71
2023/10/14 03:45:24;;;;;;;2.85;2.65;;;20.40;74.60;;;;;;4990981;28;20196;-70
2023/10/14 03:47:52;;;;;;;2.97;2.63;;;20.40;74.60;;;;;;4989629;28;20219;-71
2023/10/14 03:50:25;;;;;;;3.15;2.85;;;20.40;74.60;;;;;;5008765;28;20218;-70
2023/10/14 03:52:53;;;;;;;2.97;2.78;;;20.40;74.70;;;;;;4989471;28;20215;-70
2023/10/14 03:55:26;;;;;;;3.13;2.83;;;20.40;74.70;;;;;;4998339;28;20192;-70
2023/10/14 03:58:03;;;;;;;3.40;2.70;;;20.40;74.60;;;;;;5005353;28;20199;-72
2023/10/14 04:00:37;;;;;;;2.90;2.67;;;20.40;74.70;;;;;;5007956;28;20219;-70
2023/10/14 04:03:24;;;;;;;3.10;2.80;;;20.40;74.80;;;;;;4977123;28;20616;-70
2023/10/14 04:05:54;;;;;;;3.35;2.25;;;20.40;74.70;;;;;;4989303;28;20254;-72
2023/10/14 04:08:34;;;;;;;3.10;2.88;;;20.40;74.70;;;;;;4991080;28;20211;-71
2023/10/14 04:11:15;;;;;;;2.97;2.72;;;20.40;74.90;;;;;;4976755;28;20235;-70
2023/10/14 04:14:08;;;;;;;3.30;3.00;;;20.40;74.90;;;;;;4967323;28;20189;-70
2023/10/14 04:16:48;;;;;;;2.78;2.58;;;20.40;74.90;;;;;;4963911;28;20185;-70
2023/10/14 04:19:28;;;;;;;3.67;2.80;;;20.40;74.90;;;;;;5006521;28;20207;-70
2023/10/14 04:22:00;;;;;;;2.63;2.42;;;20.40;74.90;;;;;;4972070;28;20202;-70
2023/10/14 04:27:17;;;;;;;3.10;2.80;;;20.40;74.90;;;;;;5004854;28;20189;-70
2023/10/14 04:29:57;;;;;;;3.42;2.97;;;20.40;75.00;;;;;;4973272;28;20243;-71
2023/10/14 04:35:19;;;;;;;3.22;2.95;;;20.40;74.90;;;;;;4999466;28;20246;-70
2023/10/14 04:37:51;;;;;;;3.88;3.58;;;20.40;75.00;;;;;;5006548;28;20219;-70
2023/10/14 04:46:15;;;;;;;3.63;3.33;;;20.40;75.00;;;;;;5007035;28;20179;-71
2023/10/14 04:48:50;;;;;;;3.10;2.90;;;20.40;75.00;;;;;;5001442;28;20192;-70
2023/10/14 04:51:16;;;;;;;3.15;2.95;;;20.40;75.00;;;;;;4983884;28;20211;-70
2023/10/14 04:53:46;;;;;;;4.40;2.85;;;20.40;75.00;;;;;;5005681;28;20184;-71
2023/10/14 04:56:20;;;;;;;3.28;2.97;;;20.40;75.00;;;;;;5005315;28;20208;-70
2023/10/14 04:58:47;;;;;;;2.92;2.63;;;20.40;75.00;;;;;;4987915;28;20187;-70
2023/10/14 05:01:18;;;;;;;3.17;2.88;;;20.40;75.00;;;;;;4989798;28;20258;-70
2023/10/14 05:03:44;;;;;;;2.80;2.60;;;20.40;75.00;;;;;;5006531;28;20180;-70
2023/10/14 05:08:48;;;;;;;4.03;3.00;;;20.40;75.00;;;;;;5002600;28;20275;-71
2023/10/14 05:11:19;;;;;;;3.25;2.97;;;20.40;75.00;;;;;;5003688;28;20204;-71
2023/10/14 05:13:53;;;;;;;3.10;2.90;;;20.40;75.10;;;;;;5001485;28;20247;-70
2023/10/14 05:16:22;;;;;;;3.00;2.70;;;20.40;75.00;;;;;;5009813;28;20184;-70
2023/10/14 05:19:11;;;;;;;2.78;2.58;;;20.40;75.00;;;;;;4975543;28;20180;-70
2023/10/14 05:21:41;;;;;;;3.28;2.95;;;20.40;75.10;;;;;;5002047;28;20240;-70
2023/10/14 05:24:11;;;;;;;3.40;2.95;;;20.40;75.10;;;;;;4990275;28;20189;-70
2023/10/14 05:26:45;;;;;;;3.22;2.67;;;20.40;75.10;;;;;;5005920;28;20208;-71
2023/10/14 05:29:19;;;;;;;2.80;2.60;;;20.40;75.10;;;;;;5007908;28;20191;-70
2023/10/14 05:31:47;;;;;;;3.13;2.88;;;20.40;75.20;;;;;;4991948;28;20220;-70
2023/10/14 05:34:17;;;;;;;2.90;2.70;;;20.40;75.20;;;;;;5009418;28;20187;-70
2023/10/14 05:36:44;;;;;;;3.50;3.20;;;20.40;75.20;;;;;;5009446;28;20283;-70
2023/10/14 05:39:10;;;;;;;4.38;2.90;;;20.40;75.20;;;;;;5006979;28;20189;-70
2023/10/14 05:41:37;;;;;;;2.97;2.63;;;20.40;75.20;;;;;;5005048;28;20637;-70
2023/10/14 05:44:07;;;;;;;2.95;2.75;;;20.40;75.20;;;;;;4969831;28;20667;-70
2023/10/14 05:46:33;;;;;;;3.40;2.97;;;20.40;75.30;;;;;;4997101;28;20192;-70
2023/10/14 05:49:01;;;;;;;2.67;2.47;;;20.40;75.30;;;;;;4982876;28;20189;-69
2023/10/14 05:51:27;;;;;;;3.03;2.80;;;20.40;75.30;;;;;;4971232;28;20558;-70
2023/10/14 05:53:52;;;;;;;3.55;2.72;;;20.40;75.40;;;;;;5001987;28;20187;-70
2023/10/14 05:56:19;;;;;;;3.40;3.10;;;20.40;75.30;;;;;;4991771;28;20192;-70
2023/10/14 05:58:52;;;;;;;3.20;2.90;;;20.40;75.40;;;;;;4983230;28;20288;-70
2023/10/14 06:01:19;;;;;;;3.15;2.90;;;20.40;75.40;;;;;;5007962;28;20219;-70
2023/10/14 06:03:44;;;;;;;3.60;2.80;;;20.40;75.40;;;;;;4991363;28;20188;-70
2023/10/14 06:06:14;;;;;;;3.85;2.67;;;20.40;75.40;;;;;;4995366;28;20644;-70
2023/10/14 06:08:46;;;;;;;3.55;2.97;;;20.40;75.40;;;;;;4985592;28;20211;-70
2023/10/14 06:11:13;;;;;;;3.00;2.70;;;20.40;75.50;;;;;;5006865;28;20333;-70
2023/10/14 06:13:39;;;;;;;3.25;2.95;;;20.40;75.60;;;;;;4991867;28;20635;-70
2023/10/14 06:16:12;;;;;;;3.67;2.90;;;20.40;75.50;;;;;;5009490;28;20212;-70
2023/10/14 06:18:40;;;;;;;3.15;2.85;;;20.40;75.60;;;;;;4985562;28;20651;-70
2023/10/14 06:21:10;;;;;;;3.13;2.85;;;20.40;75.60;;;;;;5003736;28;20224;-70
2023/10/14 06:23:40;;;;;;;3.22;2.88;;;20.40;75.60;;;;;;5007154;28;20267;-70
2023/10/14 06:26:06;;;;;;;2.80;2.60;;;20.40;75.60;;;;;;5001826;28;20665;-70
2023/10/14 06:28:32;;;;;;;4.72;3.00;;;20.40;75.60;;;;;;4991170;28;20176;-70
2023/10/14 06:31:00;;;;;;;3.60;3.30;;;20.50;75.70;;;;;;5005163;28;20267;-70
2023/10/14 06:33:26;;;;;;;3.58;2.70;;;20.40;75.70;;;;;;4993524;28;20189;-71
2023/10/14 06:35:53;;;;;;;2.90;2.70;;;20.40;75.70;;;;;;5004947;28;20211;-70
2023/10/14 06:38:20;;;;;;;3.28;2.78;;;20.40;75.80;;;;;;4989805;28;20181;-70
2023/10/14 06:41:01;;;;;;;4.60;2.65;;;20.40;75.70;;;;;;4987552;28;20221;-70
2023/10/14 06:43:33;;;;;;;3.42;2.88;;;20.40;75.70;;;;;;4986204;28;20228;-70
2023/10/14 06:45:59;;;;;;;2.90;2.70;;;20.40;75.70;;;;;;5006457;28;20196;-70
2023/10/14 06:48:25;;;;;;;3.22;2.90;;;20.40;75.70;;;;;;5001749;28;20188;-70
2023/10/14 06:50:54;;;;;;;3.33;3.00;;;20.50;75.80;;;;;;5003644;28;20262;-70
2023/10/14 06:53:20;;;;;;;3.42;3.05;;;20.40;75.70;;;;;;5003666;28;20195;-70
2023/10/14 06:55:46;;;;;;;3.00;2.70;;;20.50;75.80;;;;;;4978253;28;20232;-70
2023/10/14 06:58:21;;;;;;;4.28;2.80;;;20.40;75.80;;;;;;5006310;28;20196;-70
2023/10/14 07:00:48;;;;;;;3.22;2.70;;;20.40;75.70;;;;;;4998764;28;20219;-70
2023/10/14 07:03:15;;;;;;;3.03;2.72;;;20.40;75.80;;;;;;4997760;28;20569;-70
2023/10/14 07:05:56;;;;;;;2.97;2.67;;;20.50;75.90;;;;;;4987180;28;20192;-70
2023/10/14 07:08:24;;;;;;;2.97;2.70;;;20.50;76.00;;;;;;5003419;28;20192;-70
2023/10/14 07:10:52;;;;;;;2.88;2.65;;;20.40;75.80;;;;;;5006460;28;20205;-70
2023/10/14 07:13:20;;;;;;;7.07;3.28;;;20.50;75.90;;;;;;4992331;28;20244;-70
2023/10/14 07:15:47;;;;;;;3.38;2.50;;;20.50;76.10;;;;;;5002587;28;20315;-70
2023/10/14 07:18:13;;;;;;;3.03;2.78;;;20.50;76.20;;;;;;5008831;28;20211;-69
2023/10/14 07:20:41;;;;;;;3.85;2.75;;;20.50;76.10;;;;;;5003000;28;20259;-70
2023/10/14 07:23:08;;;;;;;4.40;2.58;;;20.50;76.10;;;;;;5002644;28;20189;-70
2023/10/14 07:25:40;;;;;;;2.78;2.58;;;20.50;76.10;;;;;;4992897;28;20190;-71
2023/10/14 07:28:13;;;;;;;4.30;2.58;;;20.50;76.20;;;;;;4978628;28;20186;-70
2023/10/14 07:30:46;;;;;;;3.25;2.67;;;20.50;76.20;;;;;;5000120;28;20224;-70
2023/10/14 07:33:12;;;;;;;4.47;2.60;;;20.50;76.20;;;;;;5004011;28;20200;-69
2023/10/14 07:35:40;;;;;;;2.88;2.67;;;20.50;76.30;;;;;;4988449;28;20267;-70
2023/10/14 07:38:06;;;;;;;4.00;2.67;;;20.40;76.30;;;;;;5004175;28;20193;-70
2023/10/14 07:40:34;;;;;;;3.28;2.90;;;20.50;76.40;;;;;;4999084;28;20212;-70
2023/10/14 07:43:05;;;;;;;3.38;3.08;;;20.50;76.40;;;;;;4991926;28;20193;-70
2023/10/14 07:45:34;;;;;;;4.15;2.70;;;20.50;76.40;;;;;;4985950;28;20200;-70
2023/10/14 07:48:08;;;;;;;3.20;2.78;;;20.50;76.40;;;;;;5003054;28;20184;-70
2023/10/14 07:50:44;;;;;;;3.20;2.90;;;20.50;76.40;;;;;;5005165;28;20214;-70
2023/10/14 07:53:14;;;;;;;2.70;2.50;;;20.50;76.40;;;;;;5004461;28;20227;-69
2023/10/14 07:55:42;;;;;;;2.97;2.70;;;20.50;76.30;;;;;;4994442;28;20189;-70
2023/10/14 07:58:09;;;;;;;3.00;2.30;;;20.50;76.30;;;;;;4988380;28;20195;-70
2023/10/14 08:00:39;;;;;;;3.03;2.60;;;20.50;77.10;;;;;;4996667;28;20223;-70
2023/10/14 08:03:09;;;;;;;3.63;2.90;;;20.50;76.20;;;;;;4992511;28;20200;-71
2023/10/14 08:05:38;;;;;;;3.15;2.88;;;20.50;76.30;;;;;;4978689;28;20189;-70
2023/10/14 08:08:08;;;;;;;3.58;2.78;;;20.50;76.20;;;;;;4998302;28;20185;-69
2023/10/14 08:10:34;;;;;;;3.45;2.67;;;20.50;76.20;;;;;;4975674;28;20209;-69
2023/10/14 08:13:04;;;;;;;3.13;2.88;;;20.50;76.20;;;;;;4984911;28;20275;-70
2023/10/14 08:15:31;;;;;;;3.05;2.65;;;20.50;76.20;;;;;;4972462;28;20214;-70
2023/10/14 08:17:58;;;;;;;3.88;2.80;;;20.50;76.20;;;;;;5001021;28;20264;-70
2023/10/14 08:20:25;;;;;;;3.80;2.88;;;20.50;76.20;;;;;;4994193;28;20215;-70
2023/10/14 08:22:51;;;;;;;3.22;2.58;;;20.60;76.30;;;;;;5002479;28;20640;-69
2023/10/14 08:25:18;;;;;;;2.70;2.50;;;20.50;76.20;;;;;;4987191;28;20188;-70
2023/10/14 08:27:46;;;;;;;3.75;2.50;;;20.50;76.30;;;;;;4984765;28;20239;-70
2023/10/14 08:30:13;;;;;;;3.03;2.50;;;20.50;76.30;;;;;;5006598;28;20221;-70
2023/10/14 08:32:44;;;;;;;2.90;2.60;;;20.50;76.20;;;;;;4986604;28;20193;-70
2023/10/14 08:35:15;;;;;;;2.67;2.47;;;20.50;76.20;;;;;;5004223;28;20283;-69
2023/10/14 08:37:49;;;;;;;2.30;2.10;;;20.60;76.30;;;;;;5004155;28;20192;-70
2023/10/14 08:40:21;;;;;;;2.75;2.55;;;20.60;76.20;;;;;;5000195;28;20224;-70
2023/10/14 08:42:53;;;;;;;3.28;2.40;;;20.50;76.30;;;;;;4984430;28;20209;-71
2023/10/14 08:45:22;;;;;;;3.40;2.30;;;20.60;76.30;;;;;;5005655;28;20193;-69
2023/10/14 08:47:51;;;;;;;2.58;2.38;;;20.60;76.30;;;;;;4962723;28;20292;-70
2023/10/14 08:50:24;;;;;;;3.30;2.67;;;20.60;76.50;;;;;;4992408;28;20607;-70
2023/10/14 08:52:56;;;;;;;3.38;2.58;;;20.60;76.50;;;;;;5001334;28;20216;-70
2023/10/14 08:55:22;;;;;;;4.18;2.83;;;20.60;76.50;;;;;;4990485;28;20242;-70
2023/10/14 08:57:50;;;;;;;3.63;3.33;;;20.60;76.50;;;;;;4989909;28;20267;-70
2023/10/14 09:00:20;;;;;;;3.15;2.85;;;20.60;76.80;;;;;;5005426;28;20308;-70
2023/10/14 09:02:53;;;;;;;2.85;2.58;;;20.60;76.70;;;;;;5006248;28;20188;-69
2023/10/14 09:05:20;;;;;;;4.10;2.70;;;20.60;76.80;;;;;;5005417;28;20186;-70
2023/10/14 09:07:49;;;;;;;4.15;2.97;;;20.60;76.60;;;;;;4989596;28;20612;-70
2023/10/14 09:10:18;;;;;;;2.85;2.60;;;20.60;76.80;;;;;;5003625;28;20590;-70
2023/10/14 09:12:59;;;;;;;3.92;2.60;;;20.60;77.00;;;;;;4989789;28;20196;-70
2023/10/14 09:15:27;;;;;;;3.50;2.65;;;20.60;76.60;;;;;;5010814;28;20204;-70
2023/10/14 09:17:57;;;;;;;2.85;2.65;;;20.60;76.60;;;;;;4975174;28;20653;-71
2023/10/14 09:20:35;;;;;;;4.45;2.60;;;20.60;76.60;;;;;;4989164;28;20239;-69
2023/10/14 09:23:18;;;;;;;2.80;2.60;;;20.60;76.70;;;;;;4981822;28;20267;-70
2023/10/14 09:25:57;;;;;;;3.30;2.45;;;20.60;76.80;;;;;;4988474;28;20184;-71
2023/10/14 09:28:34;;;;;;;2.58;2.38;;;20.60;76.90;;;;;;5008472;28;20182;-70
2023/10/14 09:31:03;;;;;;;3.50;2.72;;;20.60;77.00;;;;;;4991127;28;20283;-70
2023/10/14 09:33:52;;;;;;;3.63;2.83;;;20.60;76.80;;;;;;4983931;28;20205;-70
2023/10/14 09:36:20;;;;;;;5.05;2.90;;;20.60;76.80;;;;;;4996982;28;20195;-70
2023/10/14 09:38:51;;;;;;;4.13;2.85;;;20.60;76.80;;;;;;4986439;28;20184;-71
2023/10/14 09:41:17;;;;;;;3.00;2.70;;;20.60;76.70;;;;;;4988303;28;20234;-70
2023/10/14 09:43:45;;;;;;;3.38;2.50;;;20.60;76.60;;;;;;4984700;28;20195;-70
2023/10/14 09:46:15;;;;;;;3.38;2.70;;;20.60;76.70;;;;;;5004895;28;20185;-70
2023/10/14 09:48:43;;;;;;;3.30;3.00;;;20.60;76.70;;;;;;4976748;28;20184;-70
2023/10/14 09:51:12;;;;;;;3.88;2.78;;;20.60;76.60;;;;;;5000658;28;20233;-70
2023/10/14 09:53:38;;;;;;;4.20;2.63;;;20.60;76.80;;;;;;4973351;28;20196;-70
2023/10/14 09:56:12;;;;;;;3.13;2.63;;;20.60;76.60;;;;;;4986509;28;20185;-70
2023/10/14 09:58:43;;;;;;;3.33;2.70;;;20.60;76.60;;;;;;4996707;28;20219;-70
2023/10/14 10:01:12;;;;;;;3.85;2.95;;;20.60;76.50;;;;;;4993416;28;20238;-71
2023/10/14 10:04:06;;;;;;;2.97;2.70;;;20.60;76.50;;;;;;4986414;28;20184;-71
2023/10/14 10:06:54;;;;;;;3.20;2.70;;;20.60;76.50;;;;;;4970958;28;20219;-70
2023/10/14 10:10:13;;;;;;;3.22;2.45;;;20.60;76.60;;;;;;4996828;28;20195;-70
2023/10/14 10:12:41;;;;;;;2.92;2.63;;;20.60;76.60;;;;;;5001915;28;20239;-70
2023/10/14 10:15:08;;;;;;;3.40;2.70;;;20.60;76.60;;;;;;4981810;28;20196;-70
2023/10/14 10:17:39;;;;;;;5.22;3.13;;;20.60;76.70;;;;;;5005385;28;20184;-69
2023/10/14 10:20:12;;;;;;;3.25;2.85;;;20.60;76.70;;;;;;4990922;28;20251;-69
2023/10/14 10:22:51;;;;;;;6.25;3.20;;;20.60;77.00;;;;;;4988399;28;20191;-68
2023/10/14 10:25:21;;;;;;;4.80;2.80;;;20.60;76.90;;;;;;5005571;28;20199;-70
2023/10/14 10:27:55;;;;;;;4.47;2.75;;;20.60;77.10;;;;;;4980704;28;20189;-69
2023/10/14 10:30:22;;;;;;;4.05;2.80;;;20.60;77.00;;;;;;5003137;28;20223;-70
2023/10/14 10:32:52;;;;;;;4.22;2.70;;;20.60;77.00;;;;;;4982662;28;20192;-70
2023/10/14 10:35:20;;;;;;;5.20;2.88;;;20.60;77.20;;;;;;5001520;28;20191;-70
2023/10/14 10:37:57;;;;;;;5.40;2.83;;;20.60;77.30;;;;;;5002332;28;20235;-70
2023/10/14 10:40:28;;;;;;;5.93;3.10;;;20.60;77.40;;;;;;4987935;28;20220;-70
2023/10/14 10:43:10;;;;;;;3.22;2.70;;;20.60;77.30;;;;;;4982345;28;20275;-70
2023/10/14 10:45:42;;;;;;;4.43;2.60;;;20.60;77.50;;;;;;4997504;28;20199;-69
2023/10/14 10:48:14;;;;;;;3.90;2.55;;;20.60;77.30;;;;;;4966323;28;20185;-70
2023/10/14 10:50:49;;;;;;;3.42;2.70;;;20.60;77.40;;;;;;4995717;28;20259;-70
2023/10/14 10:53:20;;;;;;;5.50;2.90;;;20.60;77.50;;;;;;4985146;28;20664;-70
2023/10/14 10:55:50;;;;;;;4.68;3.13;;;20.60;77.50;;;;;;4960334;28;20212;-70
2023/10/14 10:58:16;;;;;;;3.28;2.88;;;20.60;77.50;;;;;;5001288;28;20193;-70
2023/10/14 11:00:46;;;;;;;3.67;2.75;;;20.60;77.50;;;;;;5007036;28;20222;-69
2023/10/14 11:03:16;;;;;;;3.08;2.70;;;20.60;77.50;;;;;;4998107;28;20272;-69
2023/10/14 11:05:45;;;;;;;4.63;2.67;;;20.60;77.50;;;;;;4979763;28;20220;-70
2023/10/14 11:08:15;;;;;;;3.30;2.72;;;20.60;77.60;;;;;;4980906;28;20625;-70
2023/10/14 11:10:45;;;;;;;3.45;2.90;;;20.60;77.60;;;;;;4986272;28;20212;-70
2023/10/14 11:13:16;;;;;;;5.18;2.70;;;20.60;77.60;;;;;;4983944;28;20212;-70
2023/10/14 11:15:44;;;;;;;3.28;2.72;;;20.60;77.50;;;;;;5002851;28;20191;-70
2023/10/14 11:18:10;;;;;;;2.47;2.20;;;20.60;77.50;;;;;;5000069;28;20219;-70
2023/10/14 11:20:40;;;;;;;3.40;2.60;;;20.60;77.50;;;;;;5003103;28;20231;-70
2023/10/14 11:23:09;;;;;;;2.55;2.35;;;20.60;77.50;;;;;;4983746;28;20683;-69
2023/10/14 11:25:44;;;;;;;3.20;2.42;;;20.60;77.50;;;;;;4979416;28;20184;-70
2023/10/14 11:28:12;;;;;;;3.58;2.50;;;20.60;77.50;;;;;;4976066;28;20198;-70
2023/10/14 11:30:45;;;;;;;2.78;2.38;;;20.60;77.50;;;;;;4998080;28;20216;-70
2023/10/14 11:33:13;;;;;;;2.47;2.22;;;20.60;77.40;;;;;;4983069;28;20195;-69
2023/10/14 11:35:41;;;;;;;2.63;2.42;;;20.60;77.40;;;;;;5000028;28;20188;-70
2023/10/14 11:38:13;;;;;;;2.67;2.13;;;20.60;77.50;;;;;;4982849;28;20184;-70
2023/10/14 11:40:48;;;;;;;2.40;2.20;;;20.60;77.50;;;;;;4995505;28;20224;-70
2023/10/14 11:43:17;;;;;;;2.88;1.95;;;20.60;77.40;;;;;;4996857;28;20208;-70
2023/10/14 11:45:43;;;;;;;3.20;2.03;;;20.60;77.30;;;;;;4985652;28;20267;-70
2023/10/14 11:48:33;;;;;;;2.85;2.28;;;20.60;77.30;;;;;;4998427;28;20292;-69
2023/10/14 11:51:02;;;;;;;3.17;2.20;;;20.60;77.50;;;;;;4994813;28;20252;-69
2023/10/14 11:53:31;;;;;;;3.25;2.45;;;20.60;77.40;;;;;;4993839;28;20192;-69
2023/10/14 11:56:00;;;;;;;3.22;2.13;;;20.60;77.40;;;;;;4979581;28;20193;-68
2023/10/14 11:58:28;;;;;;;2.42;2.10;;;20.60;77.40;;;;;;4980641;28;20193;-70
2023/10/14 12:00:55;;;;;;;2.42;2.00;;;20.60;77.50;;;;;;4967046;28;20239;-69
2023/10/14 12:03:25;;;;;;;2.08;1.83;;;20.60;77.50;;;;;;4983885;28;20248;-70
2023/10/14 12:05:58;;;;;;;3.10;2.30;;;20.60;77.30;;;;;;4999784;28;20722;-70
2023/10/14 12:08:25;;;;;;;2.28;1.83;;;20.60;77.30;;;;;;4999718;28;20659;-70
2023/10/14 12:10:53;;;;;;;3.08;2.10;;;20.60;77.40;;;;;;4999573;28;20220;-70
2023/10/14 12:13:19;;;;;;;3.55;2.30;;;20.60;77.40;;;;;;4998590;28;20247;-69
2023/10/14 12:15:46;;;;;;;2.17;1.98;;;20.60;77.40;;;;;;5001681;28;20234;-69
2023/10/14 12:18:13;;;;;;;2.58;1.95;;;20.60;77.40;;;;;;4994571;28;20217;-70
2023/10/14 12:20:41;;;;;;;2.58;1.95;;;20.60;77.40;;;;;;4981069;28;20270;-70
2023/10/14 12:23:06;;;;;;;2.80;2.00;;;20.60;77.50;;;;;;4993968;28;20194;-70
2023/10/14 12:25:32;;;;;;;3.05;2.22;;;20.60;77.50;;;;;;5001571;28;20181;-69
2023/10/14 12:27:58;;;;;;;2.28;1.90;;;20.60;77.50;;;;;;4970168;28;20196;-70
2023/10/14 12:30:42;;;;;;;3.28;1.63;;;20.60;77.50;;;;;;5001977;28;20686;-70
2023/10/14 12:33:18;;;;;;;1.67;1.58;;;20.60;77.50;;;;;;4999012;28;20196;-70
2023/10/14 12:35:45;;;;;;;2.75;1.70;;;20.60;77.50;;;;;;4991846;28;20683;-70
2023/10/14 12:38:11;;;;;;;2.83;2.13;;;20.60;77.50;;;;;;4991176;28;20200;-69
2023/10/14 12:40:43;;;;;;;1.85;1.73;;;20.60;78.30;;;;;;5001551;28;20223;-70
2023/10/14 12:43:12;;;;;;;1.90;1.73;;;20.60;77.50;;;;;;4994182;28;20182;-69
2023/10/14 12:45:42;;;;;;;2.95;1.70;;;20.60;77.60;;;;;;4984650;28;20188;-70
2023/10/14 12:48:10;;;;;;;1.77;1.67;;;20.60;77.60;;;;;;4999396;28;20240;-69
2023/10/14 12:50:40;;;;;;;2.03;1.83;;;20.60;77.60;;;;;;5001404;28;20212;-69
2023/10/14 12:53:12;;;;;;;2.17;1.42;;;20.60;77.70;;;;;;4991347;28;20669;-69
2023/10/14 12:55:44;;;;;;;1.60;1.50;;;20.60;78.30;;;;;;5001444;28;20215;-70
2023/10/14 12:58:12;;;;;;;3.80;1.73;;;20.60;77.60;;;;;;4993886;28;20192;-69
2023/10/14 13:00:39;;;;;;;1.60;1.50;;;20.60;78.40;;;;;;4980317;28;20218;-69
2023/10/14 13:03:09;;;;;;;2.05;1.70;;;20.60;77.50;;;;;;4997365;28;20177;-69
2023/10/14 13:05:36;;;;;;;2.67;1.60;;;20.60;77.60;;;;;;4999402;28;20279;-69
2023/10/14 13:08:02;;;;;;;1.67;1.58;;;20.60;77.50;;;;;;4980628;28;20189;-69
2023/10/14 13:10:28;;;;;;;1.60;1.50;;;20.60;77.70;;;;;;5001742;28;20228;-70
2023/10/14 13:12:56;;;;;;;1.83;1.20;;;20.60;77.60;;;;;;4986679;28;20180;-70
2023/10/14 13:15:28;;;;;;;1.77;1.67;;;20.60;77.50;;;;;;5002052;28;20211;-69
2023/10/14 13:18:05;;;;;;;1.52;1.42;;;20.60;77.50;;;;;;4980724;28;20766;-69
2023/10/14 13:20:35;;;;;;;2.00;1.70;;;20.60;77.50;;;;;;4999741;28;20220;-70
2023/10/14 13:23:09;;;;;;;1.42;1.33;;;20.60;77.50;;;;;;4996703;28;20189;-70
2023/10/14 13:25:36;;;;;;;2.75;1.33;;;20.60;77.50;;;;;;4998265;28;20243;-69
2023/10/14 13:28:09;;;;;;;1.73;1.50;;;20.60;77.50;;;;;;4980166;28;20189;-69
2023/10/14 13:30:38;;;;;;;1.52;1.42;;;20.60;77.50;;;;;;4999215;28;20212;-70
2023/10/14 13:33:05;;;;;;;1.50;1.40;;;20.60;77.70;;;;;;4993946;28;20189;-70
2023/10/14 13:35:33;;;;;;;1.85;1.52;;;20.60;77.80;;;;;;4997468;28;20264;-70